sensor_id;sensor_type;location;lat;lon;timestamp;pressure;altitude;pressure_sealevel;temperature;humidity
18500;BME280;9379;52.134;11.576;2023-03-21T00:01:11;101078.44;;;12.83;79.75
18500;BME280;9379;52.134;11.576;2023-03-21T00:03:39;101075.06;;;12.91;79.82
18500;BME280;9379;52.134;11.576;2023-03-21T00:06:10;101067.56;;;12.56;80.95
18500;BME280;9379;52.134;11.576;2023-03-21T00:08:37;101078.66;;;12.51;81.32
18500;BME280;9379;52.134;11.576;2023-03-21T00:11:07;101069.72;;;12.62;81.06
18500;BME280;9379;52.134;11.576;2023-03-21T00:13:35;101068.69;;;12.53;81.76
18500;BME280;9379;52.134;11.576;2023-03-21T00:16:08;101064.97;;;12.75;81.39
18500;BME280;9379;52.134;11.576;2023-03-21T00:18:40;101075.72;;;12.54;81.68
18500;BME280;9379;52.134;11.576;2023-03-21T00:21:09;101066.06;;;12.23;83.16
18500;BME280;9379;52.134;11.576;2023-03-21T00:23:36;101072.50;;;12.20;83.33
18500;BME280;9379;52.134;11.576;2023-03-21T00:26:04;101065.50;;;12.69;82.59
18500;BME280;9379;52.134;11.576;2023-03-21T00:28:30;101066.50;;;12.88;80.99
18500;BME280;9379;52.134;11.576;2023-03-21T00:30:59;101056.59;;;12.40;82.57
18500;BME280;9379;52.134;11.576;2023-03-21T00:33:26;101056.81;;;12.17;83.62
18500;BME280;9379;52.134;11.576;2023-03-21T00:35:53;101056.91;;;12.56;83.10
18500;BME280;9379;52.134;11.576;2023-03-21T00:38:20;101051.94;;;12.32;83.06
18500;BME280;9379;52.134;11.576;2023-03-21T00:40:47;101053.59;;;12.23;83.67
18500;BME280;9379;52.134;11.576;2023-03-21T00:43:15;101041.22;;;12.72;82.21
18500;BME280;9379;52.134;11.576;2023-03-21T00:45:43;101042.44;;;12.39;83.31
18500;BME280;9379;52.134;11.576;2023-03-21T00:48:12;101031.41;;;12.82;81.95
18500;BME280;9379;52.134;11.576;2023-03-21T00:50:39;101039.69;;;12.89;81.74
18500;BME280;9379;52.134;11.576;2023-03-21T00:53:06;101031.78;;;12.59;82.84
18500;BME280;9379;52.134;11.576;2023-03-21T00:55:33;101034.34;;;12.70;82.72
18500;BME280;9379;52.134;11.576;2023-03-21T00:58:00;101033.22;;;12.72;82.77
18500;BME280;9379;52.134;11.576;2023-03-21T01:00:27;101036.19;;;12.79;82.62
18500;BME280;9379;52.134;11.576;2023-03-21T01:02:54;101019.13;;;12.41;83.88
18500;BME280;9379;52.134;11.576;2023-03-21T01:05:33;101039.16;;;12.36;85.45
18500;BME280;9379;52.134;11.576;2023-03-21T01:08:19;101033.44;;;12.40;86.24
18500;BME280;9379;52.134;11.576;2023-03-21T01:10:48;101034.38;;;12.20;87.07
18500;BME280;9379;52.134;11.576;2023-03-21T01:13:19;101042.28;;;12.41;86.51
18500;BME280;9379;52.134;11.576;2023-03-21T01:15:48;101038.47;;;12.34;86.42
18500;BME280;9379;52.134;11.576;2023-03-21T01:18:17;101029.97;;;12.69;85.33
18500;BME280;9379;52.134;11.576;2023-03-21T01:20:46;101034.75;;;12.65;85.96
18500;BME280;9379;52.134;11.576;2023-03-21T01:23:13;101030.28;;;12.16;88.77
18500;BME280;9379;52.134;11.576;2023-03-21T01:25:41;101032.16;;;12.35;87.60
18500;BME280;9379;52.134;11.576;2023-03-21T01:28:09;101032.59;;;12.49;86.80
18500;BME280;9379;52.134;11.576;2023-03-21T01:30:36;101030.53;;;12.53;86.96
18500;BME280;9379;52.134;11.576;2023-03-21T01:33:03;101018.00;;;12.34;87.16
18500;BME280;9379;52.134;11.576;2023-03-21T01:35:30;101033.00;;;12.35;87.97
18500;BME280;9379;52.134;11.576;2023-03-21T01:37:58;101024.81;;;12.77;86.32
18500;BME280;9379;52.134;11.576;2023-03-21T01:40:26;101031.50;;;12.52;87.81
18500;BME280;9379;52.134;11.576;2023-03-21T01:42:53;101021.56;;;12.14;88.51
18500;BME280;9379;52.134;11.576;2023-03-21T01:48:25;101024.06;;;12.55;87.88
18500;BME280;9379;52.134;11.576;2023-03-21T01:50:52;101028.53;;;11.95;90.32
18500;BME280;9379;52.134;11.576;2023-03-21T01:53:23;101028.53;;;11.75;91.65
18500;BME280;9379;52.134;11.576;2023-03-21T01:55:55;101025.09;;;12.24;90.19
18500;BME280;9379;52.134;11.576;2023-03-21T01:58:23;101016.06;;;12.46;89.04
18500;BME280;9379;52.134;11.576;2023-03-21T02:00:50;101018.72;;;11.75;92.80
18500;BME280;9379;52.134;11.576;2023-03-21T02:03:18;101014.13;;;11.56;94.56
18500;BME280;9379;52.134;11.576;2023-03-21T02:05:50;101002.16;;;11.92;92.81
18500;BME280;9379;52.134;11.576;2023-03-21T02:08:18;100985.69;;;11.57;93.87
18500;BME280;9379;52.134;11.576;2023-03-21T02:10:47;101009.41;;;11.90;92.41
18500;BME280;9379;52.134;11.576;2023-03-21T02:13:15;101002.69;;;11.65;92.30
18500;BME280;9379;52.134;11.576;2023-03-21T02:15:46;101009.50;;;12.10;91.97
18500;BME280;9379;52.134;11.576;2023-03-21T02:18:25;101001.28;;;11.61;94.02
18500;BME280;9379;52.134;11.576;2023-03-21T02:21:27;101007.22;;;11.75;93.24
18500;BME280;9379;52.134;11.576;2023-03-21T02:24:29;101005.13;;;11.48;94.81
18500;BME280;9379;52.134;11.576;2023-03-21T02:27:12;100998.25;;;11.76;93.48
18500;BME280;9379;52.134;11.576;2023-03-21T02:33:05;100991.72;;;11.80;93.22
18500;BME280;9379;52.134;11.576;2023-03-21T02:35:53;100989.56;;;11.74;93.49
18500;BME280;9379;52.134;11.576;2023-03-21T02:38:26;100987.78;;;11.53;94.83
18500;BME280;9379;52.134;11.576;2023-03-21T02:41:02;100987.66;;;11.34;95.75
18500;BME280;9379;52.134;11.576;2023-03-21T02:43:35;100985.59;;;11.68;93.92
18500;BME280;9379;52.134;11.576;2023-03-21T02:46:08;100993.72;;;11.66;93.35
18500;BME280;9379;52.134;11.576;2023-03-21T02:48:38;100963.69;;;11.55;93.52
18500;BME280;9379;52.134;11.576;2023-03-21T02:51:08;100981.41;;;11.45;95.35
18500;BME280;9379;52.134;11.576;2023-03-21T02:53:40;100978.41;;;11.80;93.60
18500;BME280;9379;52.134;11.576;2023-03-21T02:56:09;100975.44;;;11.52;93.96
18500;BME280;9379;52.134;11.576;2023-03-21T02:58:37;100980.34;;;11.57;95.75
18500;BME280;9379;52.134;11.576;2023-03-21T03:01:05;100981.44;;;11.24;95.93
18500;BME280;9379;52.134;11.576;2023-03-21T03:03:33;100979.66;;;11.55;94.67
18500;BME280;9379;52.134;11.576;2023-03-21T03:06:08;100978.25;;;11.51;94.37
18500;BME280;9379;52.134;11.576;2023-03-21T03:08:42;100983.38;;;11.43;95.51
18500;BME280;9379;52.134;11.576;2023-03-21T03:11:23;100983.16;;;11.55;94.61
18500;BME280;9379;52.134;11.576;2023-03-21T03:14:13;100977.75;;;11.15;97.31
18500;BME280;9379;52.134;11.576;2023-03-21T03:16:47;100984.16;;;11.33;96.56
18500;BME280;9379;52.134;11.576;2023-03-21T03:19:23;100982.22;;;11.35;96.61
18500;BME280;9379;52.134;11.576;2023-03-21T03:21:56;100980.34;;;11.26;97.42
18500;BME280;9379;52.134;11.576;2023-03-21T03:24:30;100984.53;;;11.50;96.70
18500;BME280;9379;52.134;11.576;2023-03-21T03:26:59;100971.59;;;11.45;96.18
18500;BME280;9379;52.134;11.576;2023-03-21T03:29:29;100984.41;;;11.09;98.91
18500;BME280;9379;52.134;11.576;2023-03-21T03:32:01;100972.38;;;11.26;98.07
18500;BME280;9379;52.134;11.576;2023-03-21T03:34:33;100980.06;;;11.08;99.50
18500;BME280;9379;52.134;11.576;2023-03-21T03:37:04;100983.00;;;11.05;99.99
18500;BME280;9379;52.134;11.576;2023-03-21T03:39:36;100977.63;;;11.17;99.91
18500;BME280;9379;52.134;11.576;2023-03-21T03:42:08;100987.91;;;11.10;100.00
18500;BME280;9379;52.134;11.576;2023-03-21T03:44:39;100971.66;;;11.24;100.00
18500;BME280;9379;52.134;11.576;2023-03-21T03:47:08;100978.97;;;11.11;100.00
18500;BME280;9379;52.134;11.576;2023-03-21T03:49:38;100973.88;;;10.87;100.00
18500;BME280;9379;52.134;11.576;2023-03-21T03:52:10;100978.38;;;10.87;100.00
18500;BME280;9379;52.134;11.576;2023-03-21T03:54:44;100955.47;;;10.74;100.00
18500;BME280;9379;52.134;11.576;2023-03-21T03:57:13;100969.69;;;10.85;100.00
18500;BME280;9379;52.134;11.576;2023-03-21T03:59:42;100975.78;;;11.17;100.00
18500;BME280;9379;52.134;11.576;2023-03-21T04:02:09;100967.38;;;11.12;100.00
18500;BME280;9379;52.134;11.576;2023-03-21T04:04:36;100966.28;;;11.45;99.45
18500;BME280;9379;52.134;11.576;2023-03-21T04:07:03;100966.69;;;10.99;100.00
18500;BME280;9379;52.134;11.576;2023-03-21T04:09:30;100966.00;;;11.38;100.00
18500;BME280;9379;52.134;11.576;2023-03-21T04:11:59;100962.75;;;11.14;100.00
18500;BME280;9379;52.134;11.576;2023-03-21T04:14:25;100961.72;;;11.05;100.00
18500;BME280;9379;52.134;11.576;2023-03-21T04:16:52;100956.13;;;10.88;100.00
18500;BME280;9379;52.134;11.576;2023-03-21T04:19:20;100957.38;;;11.25;100.00
18500;BME280;9379;52.134;11.576;2023-03-21T04:21:47;100931.94;;;11.12;100.00
18500;BME280;9379;52.134;11.576;2023-03-21T04:24:14;100947.75;;;10.71;100.00
18500;BME280;9379;52.134;11.576;2023-03-21T04:26:41;100949.13;;;10.66;100.00
18500;BME280;9379;52.134;11.576;2023-03-21T04:29:09;100947.31;;;11.29;100.00
18500;BME280;9379;52.134;11.576;2023-03-21T04:31:36;100956.41;;;11.26;100.00
18500;BME280;9379;52.134;11.576;2023-03-21T04:34:06;100957.09;;;11.49;99.03
18500;BME280;9379;52.134;11.576;2023-03-21T04:36:34;100956.06;;;11.40;99.19
18500;BME280;9379;52.134;11.576;2023-03-21T04:39:07;100957.56;;;11.64;98.09
18500;BME280;9379;52.134;11.576;2023-03-21T04:41:37;100946.81;;;11.14;100.00
18500;BME280;9379;52.134;11.576;2023-03-21T04:44:04;100946.78;;;10.72;100.00
18500;BME280;9379;52.134;11.576;2023-03-21T04:46:33;100947.75;;;10.71;100.00
18500;BME280;9379;52.134;11.576;2023-03-21T04:49:00;100942.16;;;10.74;100.00
18500;BME280;9379;52.134;11.576;2023-03-21T04:51:27;100932.47;;;11.05;100.00
18500;BME280;9379;52.134;11.576;2023-03-21T04:53:54;100939.75;;;11.34;100.00
18500;BME280;9379;52.134;11.576;2023-03-21T04:56:22;100940.00;;;11.52;99.08
18500;BME280;9379;52.134;11.576;2023-03-21T04:58:55;100944.91;;;11.47;99.10
18500;BME280;9379;52.134;11.576;2023-03-21T05:01:21;100934.31;;;11.35;99.58
18500;BME280;9379;52.134;11.576;2023-03-21T05:03:51;100941.28;;;11.57;98.46
18500;BME280;9379;52.134;11.576;2023-03-21T05:06:18;100941.97;;;11.29;100.00
18500;BME280;9379;52.134;11.576;2023-03-21T05:08:45;100943.19;;;11.46;99.76
18500;BME280;9379;52.134;11.576;2023-03-21T05:11:11;100950.03;;;11.18;100.00
18500;BME280;9379;52.134;11.576;2023-03-21T05:13:38;100944.38;;;11.32;100.00
18500;BME280;9379;52.134;11.576;2023-03-21T05:16:07;100938.75;;;11.25;100.00
18500;BME280;9379;52.134;11.576;2023-03-21T05:18:34;100938.34;;;11.09;100.00
18500;BME280;9379;52.134;11.576;2023-03-21T05:21:05;100948.06;;;10.99;100.00
18500;BME280;9379;52.134;11.576;2023-03-21T05:23:35;100929.72;;;11.17;100.00
18500;BME280;9379;52.134;11.576;2023-03-21T05:26:04;100947.47;;;11.58;99.77
18500;BME280;9379;52.134;11.576;2023-03-21T05:28:32;100948.34;;;11.37;100.00
18500;BME280;9379;52.134;11.576;2023-03-21T05:31:01;100946.72;;;11.56;99.61
18500;BME280;9379;52.134;11.576;2023-03-21T05:33:28;100939.06;;;11.11;100.00
18500;BME280;9379;52.134;11.576;2023-03-21T05:35:55;100942.00;;;11.08;100.00
18500;BME280;9379;52.134;11.576;2023-03-21T05:38:24;100942.19;;;10.95;100.00
18500;BME280;9379;52.134;11.576;2023-03-21T05:40:52;100944.56;;;11.19;100.00
18500;BME280;9379;52.134;11.576;2023-03-21T05:43:19;100948.28;;;11.07;100.00
18500;BME280;9379;52.134;11.576;2023-03-21T05:45:46;100950.28;;;11.35;100.00
18500;BME280;9379;52.134;11.576;2023-03-21T05:48:13;100941.41;;;11.04;100.00
18500;BME280;9379;52.134;11.576;2023-03-21T05:50:40;100947.25;;;11.19;100.00
18500;BME280;9379;52.134;11.576;2023-03-21T05:53:07;100946.78;;;11.35;100.00
18500;BME280;9379;52.134;11.576;2023-03-21T05:55:35;100933.44;;;11.25;100.00
18500;BME280;9379;52.134;11.576;2023-03-21T05:58:02;100929.72;;;10.96;100.00
18500;BME280;9379;52.134;11.576;2023-03-21T06:00:29;100950.38;;;11.03;100.00
18500;BME280;9379;52.134;11.576;2023-03-21T06:02:56;100946.59;;;11.27;100.00
18500;BME280;9379;52.134;11.576;2023-03-21T06:05:23;100948.00;;;11.31;100.00
18500;BME280;9379;52.134;11.576;2023-03-21T06:07:49;100947.22;;;11.40;99.43
18500;BME280;9379;52.134;11.576;2023-03-21T06:10:16;100950.28;;;11.35;99.74
18500;BME280;9379;52.134;11.576;2023-03-21T06:12:44;100965.59;;;11.43;99.48
18500;BME280;9379;52.134;11.576;2023-03-21T06:15:11;100957.50;;;11.54;98.67
18500;BME280;9379;52.134;11.576;2023-03-21T06:17:38;100963.97;;;11.10;100.00
18500;BME280;9379;52.134;11.576;2023-03-21T06:20:06;100958.00;;;11.69;98.62
18500;BME280;9379;52.134;11.576;2023-03-21T06:22:34;100949.81;;;11.30;99.23
18500;BME280;9379;52.134;11.576;2023-03-21T06:25:01;100958.88;;;11.69;97.93
18500;BME280;9379;52.134;11.576;2023-03-21T06:27:28;100961.50;;;11.39;99.47
18500;BME280;9379;52.134;11.576;2023-03-21T06:29:56;100953.78;;;11.36;100.00
18500;BME280;9379;52.134;11.576;2023-03-21T06:32:23;100957.72;;;11.62;99.93
18500;BME280;9379;52.134;11.576;2023-03-21T06:34:51;100951.25;;;11.65;100.00
18500;BME280;9379;52.134;11.576;2023-03-21T06:37:18;100959.28;;;11.75;100.00
18500;BME280;9379;52.134;11.576;2023-03-21T06:39:45;100965.44;;;11.45;100.00
18500;BME280;9379;52.134;11.576;2023-03-21T06:42:12;100960.34;;;11.11;100.00
18500;BME280;9379;52.134;11.576;2023-03-21T06:44:39;100959.66;;;11.81;100.00
18500;BME280;9379;52.134;11.576;2023-03-21T06:47:07;100966.63;;;11.10;100.00
18500;BME280;9379;52.134;11.576;2023-03-21T06:49:34;100956.13;;;11.08;100.00
18500;BME280;9379;52.134;11.576;2023-03-21T06:52:01;100960.03;;;11.56;100.00
18500;BME280;9379;52.134;11.576;2023-03-21T06:54:28;100964.47;;;11.76;100.00
18500;BME280;9379;52.134;11.576;2023-03-21T06:56:55;100962.47;;;11.59;100.00
18500;BME280;9379;52.134;11.576;2023-03-21T06:59:22;100959.63;;;11.30;100.00
18500;BME280;9379;52.134;11.576;2023-03-21T07:01:48;100951.78;;;11.28;100.00
18500;BME280;9379;52.134;11.576;2023-03-21T07:04:17;100959.59;;;11.51;100.00
18500;BME280;9379;52.134;11.576;2023-03-21T07:06:43;100948.91;;;11.41;100.00
18500;BME280;9379;52.134;11.576;2023-03-21T07:09:10;100959.34;;;11.33;100.00
18500;BME280;9379;52.134;11.576;2023-03-21T07:11:37;100950.91;;;11.49;100.00
18500;BME280;9379;52.134;11.576;2023-03-21T07:14:04;100953.69;;;11.78;100.00
18500;BME280;9379;52.134;11.576;2023-03-21T07:16:31;100964.09;;;11.81;100.00
18500;BME280;9379;52.134;11.576;2023-03-21T07:18:58;100953.25;;;11.93;100.00
18500;BME280;9379;52.134;11.576;2023-03-21T07:21:26;100959.75;;;11.80;100.00
18500;BME280;9379;52.134;11.576;2023-03-21T07:23:53;100955.56;;;11.56;100.00
18500;BME280;9379;52.134;11.576;2023-03-21T07:26:20;100958.00;;;11.69;100.00
18500;BME280;9379;52.134;11.576;2023-03-21T07:28:47;100956.50;;;12.07;100.00
18500;BME280;9379;52.134;11.576;2023-03-21T07:31:15;100958.38;;;12.35;100.00
18500;BME280;9379;52.134;11.576;2023-03-21T07:33:43;100951.47;;;12.23;100.00
18500;BME280;9379;52.134;11.576;2023-03-21T07:36:12;100957.31;;;11.97;100.00
18500;BME280;9379;52.134;11.576;2023-03-21T07:38:41;100961.72;;;12.37;99.92
18500;BME280;9379;52.134;11.576;2023-03-21T07:41:08;100946.59;;;12.47;98.79
18500;BME280;9379;52.134;11.576;2023-03-21T07:43:35;100949.78;;;12.22;99.82
18500;BME280;9379;52.134;11.576;2023-03-21T07:46:01;100942.28;;;11.87;100.00
18500;BME280;9379;52.134;11.576;2023-03-21T07:48:29;100941.13;;;12.30;99.97
18500;BME280;9379;52.134;11.576;2023-03-21T07:50:56;100953.72;;;12.37;99.56
18500;BME280;9379;52.134;11.576;2023-03-21T07:53:23;100949.91;;;12.11;100.00
18500;BME280;9379;52.134;11.576;2023-03-21T07:55:52;100947.50;;;11.98;100.00
18500;BME280;9379;52.134;11.576;2023-03-21T07:58:20;100952.19;;;12.25;99.83
18500;BME280;9379;52.134;11.576;2023-03-21T08:00:48;100947.53;;;12.08;100.00
18500;BME280;9379;52.134;11.576;2023-03-21T08:03:15;100946.72;;;12.36;100.00
18500;BME280;9379;52.134;11.576;2023-03-21T08:05:42;100948.84;;;12.62;99.13
18500;BME280;9379;52.134;11.576;2023-03-21T08:08:09;100957.69;;;12.43;99.77
18500;BME280;9379;52.134;11.576;2023-03-21T08:10:36;100955.06;;;12.03;99.02
18500;BME280;9379;52.134;11.576;2023-03-21T08:13:04;100946.00;;;12.24;99.30
18500;BME280;9379;52.134;11.576;2023-03-21T08:15:31;100947.16;;;12.61;97.68
18500;BME280;9379;52.134;11.576;2023-03-21T08:17:58;100961.06;;;12.54;99.11
18500;BME280;9379;52.134;11.576;2023-03-21T08:20:26;100959.31;;;12.24;99.73
18500;BME280;9379;52.134;11.576;2023-03-21T08:22:53;100953.63;;;12.58;98.24
18500;BME280;9379;52.134;11.576;2023-03-21T08:25:21;100956.44;;;12.66;96.93
18500;BME280;9379;52.134;11.576;2023-03-21T08:27:49;100955.16;;;12.80;97.94
18500;BME280;9379;52.134;11.576;2023-03-21T08:30:19;100951.50;;;12.71;97.07
18500;BME280;9379;52.134;11.576;2023-03-21T08:32:47;100959.50;;;12.42;99.22
18500;BME280;9379;52.134;11.576;2023-03-21T08:35:16;100951.06;;;12.37;99.50
18500;BME280;9379;52.134;11.576;2023-03-21T08:37:43;100938.31;;;12.31;99.24
18500;BME280;9379;52.134;11.576;2023-03-21T08:40:12;100936.50;;;12.41;99.14
18500;BME280;9379;52.134;11.576;2023-03-21T08:42:40;100952.66;;;12.88;97.42
18500;BME280;9379;52.134;11.576;2023-03-21T08:45:08;100949.53;;;12.83;98.88
18500;BME280;9379;52.134;11.576;2023-03-21T08:47:37;100946.59;;;12.57;98.82
18500;BME280;9379;52.134;11.576;2023-03-21T08:50:05;100946.31;;;12.79;97.95
18500;BME280;9379;52.134;11.576;2023-03-21T08:52:33;100934.25;;;12.37;99.47
18500;BME280;9379;52.134;11.576;2023-03-21T08:55:00;100947.47;;;12.87;97.08
18500;BME280;9379;52.134;11.576;2023-03-21T08:57:28;100944.34;;;13.01;96.84
18500;BME280;9379;52.134;11.576;2023-03-21T08:59:55;100938.56;;;13.15;95.97
18500;BME280;9379;52.134;11.576;2023-03-21T09:02:21;100944.66;;;12.98;97.76
18500;BME280;9379;52.134;11.576;2023-03-21T09:04:50;100946.72;;;12.94;97.22
18500;BME280;9379;52.134;11.576;2023-03-21T09:07:21;100944.34;;;13.10;97.60
18500;BME280;9379;52.134;11.576;2023-03-21T09:09:50;100947.31;;;12.98;96.83
18500;BME280;9379;52.134;11.576;2023-03-21T09:12:18;100937.75;;;12.95;96.24
18500;BME280;9379;52.134;11.576;2023-03-21T09:14:44;100944.94;;;12.85;96.73
18500;BME280;9379;52.134;11.576;2023-03-21T09:17:11;100944.72;;;13.15;95.02
18500;BME280;9379;52.134;11.576;2023-03-21T09:19:38;100942.38;;;13.22;94.46
18500;BME280;9379;52.134;11.576;2023-03-21T09:22:06;100925.50;;;13.31;94.84
18500;BME280;9379;52.134;11.576;2023-03-21T09:24:38;100937.72;;;13.14;95.55
18500;BME280;9379;52.134;11.576;2023-03-21T09:27:06;100935.97;;;13.42;94.38
18500;BME280;9379;52.134;11.576;2023-03-21T09:29:33;100939.13;;;13.19;94.28
18500;BME280;9379;52.134;11.576;2023-03-21T09:32:00;100931.88;;;13.58;92.75
18500;BME280;9379;52.134;11.576;2023-03-21T09:34:28;100928.19;;;13.68;92.50
18500;BME280;9379;52.134;11.576;2023-03-21T09:36:55;100928.84;;;13.98;92.67
18500;BME280;9379;52.134;11.576;2023-03-21T09:39:23;100908.31;;;13.43;94.63
18500;BME280;9379;52.134;11.576;2023-03-21T09:42:05;100910.09;;;13.53;94.76
18500;BME280;9379;52.134;11.576;2023-03-21T09:44:46;100912.44;;;13.19;94.24
18500;BME280;9379;52.134;11.576;2023-03-21T09:47:19;100931.00;;;13.67;93.05
18500;BME280;9379;52.134;11.576;2023-03-21T09:49:52;100910.34;;;13.22;93.93
18500;BME280;9379;52.134;11.576;2023-03-21T09:52:25;100926.94;;;13.90;91.26
18500;BME280;9379;52.134;11.576;2023-03-21T09:54:54;100929.34;;;13.56;93.05
18500;BME280;9379;52.134;11.576;2023-03-21T09:57:30;100932.63;;;13.78;91.53
18500;BME280;9379;52.134;11.576;2023-03-21T09:59:59;100924.41;;;13.61;92.38
18500;BME280;9379;52.134;11.576;2023-03-21T10:02:37;100921.56;;;13.63;92.27
18500;BME280;9379;52.134;11.576;2023-03-21T10:05:11;100928.03;;;13.33;94.58
18500;BME280;9379;52.134;11.576;2023-03-21T10:07:41;100920.59;;;13.27;93.88
18500;BME280;9379;52.134;11.576;2023-03-21T10:10:16;100919.72;;;13.36;94.19
18500;BME280;9379;52.134;11.576;2023-03-21T10:12:45;100912.53;;;14.01;91.47
18500;BME280;9379;52.134;11.576;2023-03-21T10:15:17;100907.44;;;13.80;93.11
18500;BME280;9379;52.134;11.576;2023-03-21T10:17:50;100904.47;;;14.28;90.38
18500;BME280;9379;52.134;11.576;2023-03-21T10:20:21;100906.09;;;14.57;89.53
18500;BME280;9379;52.134;11.576;2023-03-21T10:22:51;100906.31;;;14.28;89.31
18500;BME280;9379;52.134;11.576;2023-03-21T10:25:24;100908.28;;;13.81;91.72
18500;BME280;9379;52.134;11.576;2023-03-21T10:27:52;100906.59;;;14.07;89.34
18500;BME280;9379;52.134;11.576;2023-03-21T10:30:27;100907.59;;;14.42;88.16
18500;BME280;9379;52.134;11.576;2023-03-21T10:32:56;100904.19;;;14.67;87.27
18500;BME280;9379;52.134;11.576;2023-03-21T10:35:26;100904.66;;;14.45;90.22
18500;BME280;9379;52.134;11.576;2023-03-21T10:37:54;100901.75;;;14.11;90.16
18500;BME280;9379;52.134;11.576;2023-03-21T10:40:22;100897.06;;;14.40;89.10
18500;BME280;9379;52.134;11.576;2023-03-21T10:42:49;100898.22;;;14.73;87.93
18500;BME280;9379;52.134;11.576;2023-03-21T10:45:18;100898.84;;;14.49;90.01
18500;BME280;9379;52.134;11.576;2023-03-21T10:47:47;100895.75;;;14.80;88.69
18500;BME280;9379;52.134;11.576;2023-03-21T10:50:17;100893.72;;;15.00;86.56
18500;BME280;9379;52.134;11.576;2023-03-21T10:52:54;100889.44;;;14.27;89.17
18500;BME280;9379;52.134;11.576;2023-03-21T10:55:28;100888.44;;;14.46;89.18
18500;BME280;9379;52.134;11.576;2023-03-21T10:57:58;100883.03;;;14.56;88.66
18500;BME280;9379;52.134;11.576;2023-03-21T11:00:28;100878.06;;;14.61;87.41
18500;BME280;9379;52.134;11.576;2023-03-21T11:02:56;100884.44;;;14.32;89.06
18500;BME280;9379;52.134;11.576;2023-03-21T11:05:26;100881.34;;;14.73;89.14
18500;BME280;9379;52.134;11.576;2023-03-21T11:08:01;100876.94;;;15.15;85.68
18500;BME280;9379;52.134;11.576;2023-03-21T11:10:32;100875.16;;;15.58;84.37
18500;BME280;9379;52.134;11.576;2023-03-21T11:13:05;100879.91;;;15.38;85.68
18500;BME280;9379;52.134;11.576;2023-03-21T11:15:41;100874.31;;;15.24;85.79
18500;BME280;9379;52.134;11.576;2023-03-21T11:18:18;100873.84;;;14.41;89.73
18500;BME280;9379;52.134;11.576;2023-03-21T11:20:49;100872.41;;;15.16;86.91
18500;BME280;9379;52.134;11.576;2023-03-21T11:23:18;100867.63;;;14.22;89.17
18500;BME280;9379;52.134;11.576;2023-03-21T11:25:48;100859.38;;;14.69;88.46
18500;BME280;9379;52.134;11.576;2023-03-21T11:28:17;100863.69;;;14.26;88.98
18500;BME280;9379;52.134;11.576;2023-03-21T11:30:52;100863.63;;;14.54;89.49
18500;BME280;9379;52.134;11.576;2023-03-21T11:33:21;100859.69;;;14.66;87.75
18500;BME280;9379;52.134;11.576;2023-03-21T11:36:03;100854.22;;;15.28;86.92
18500;BME280;9379;52.134;11.576;2023-03-21T11:38:32;100854.22;;;15.28;85.99
18500;BME280;9379;52.134;11.576;2023-03-21T11:41:04;100855.84;;;14.86;86.51
18500;BME280;9379;52.134;11.576;2023-03-21T11:43:34;100851.84;;;15.16;85.86
18500;BME280;9379;52.134;11.576;2023-03-21T11:46:05;100854.34;;;15.44;85.09
18500;BME280;9379;52.134;11.576;2023-03-21T11:48:37;100853.47;;;15.09;85.70
18500;BME280;9379;52.134;11.576;2023-03-21T11:51:12;100848.75;;;15.03;86.33
18500;BME280;9379;52.134;11.576;2023-03-21T11:53:45;100845.28;;;15.11;84.82
18500;BME280;9379;52.134;11.576;2023-03-21T11:56:27;100843.78;;;15.08;85.91
18500;BME280;9379;52.134;11.576;2023-03-21T11:59:06;100835.25;;;15.13;85.90
18500;BME280;9379;52.134;11.576;2023-03-21T12:01:49;100833.84;;;15.35;85.81
18500;BME280;9379;52.134;11.576;2023-03-21T12:04:34;100835.22;;;14.79;87.66
18500;BME280;9379;52.134;11.576;2023-03-21T12:07:12;100824.16;;;15.34;84.94
18500;BME280;9379;52.134;11.576;2023-03-21T12:09:49;100825.41;;;14.87;86.95
18500;BME280;9379;52.134;11.576;2023-03-21T12:12:31;100824.94;;;15.26;85.92
18500;BME280;9379;52.134;11.576;2023-03-21T12:15:05;100819.19;;;15.47;85.36
18500;BME280;9379;52.134;11.576;2023-03-21T12:17:42;100804.59;;;15.92;84.14
18500;BME280;9379;52.134;11.576;2023-03-21T12:20:22;100811.78;;;15.75;84.06
18500;BME280;9379;52.134;11.576;2023-03-21T12:23:09;100804.06;;;15.30;85.95
18500;BME280;9379;52.134;11.576;2023-03-21T12:25:41;100799.63;;;16.21;83.48
18500;BME280;9379;52.134;11.576;2023-03-21T12:28:23;100796.09;;;16.13;82.34
18500;BME280;9379;52.134;11.576;2023-03-21T12:30:58;100796.75;;;15.98;83.62
18500;BME280;9379;52.134;11.576;2023-03-21T12:33:47;100800.50;;;15.21;86.02
18500;BME280;9379;52.134;11.576;2023-03-21T12:36:38;100786.69;;;15.42;86.19
18500;BME280;9379;52.134;11.576;2023-03-21T12:39:16;100790.69;;;15.38;86.06
18500;BME280;9379;52.134;11.576;2023-03-21T12:41:59;100790.53;;;15.90;84.80
18500;BME280;9379;52.134;11.576;2023-03-21T12:44:35;100777.50;;;16.36;83.21
18500;BME280;9379;52.134;11.576;2023-03-21T12:47:06;100768.41;;;16.53;81.63
18500;BME280;9379;52.134;11.576;2023-03-21T12:49:38;100776.41;;;15.63;84.34
18500;BME280;9379;52.134;11.576;2023-03-21T12:52:10;100765.06;;;16.02;84.83
18500;BME280;9379;52.134;11.576;2023-03-21T12:54:40;100776.75;;;15.68;86.34
18500;BME280;9379;52.134;11.576;2023-03-21T12:57:14;100786.50;;;15.35;87.84
18500;BME280;9379;52.134;11.576;2023-03-21T12:59:49;100784.44;;;15.21;87.40
18500;BME280;9379;52.134;11.576;2023-03-21T13:02:23;100777.69;;;15.09;86.98
18500;BME280;9379;52.134;11.576;2023-03-21T13:04:57;100771.06;;;15.71;84.83
18500;BME280;9379;52.134;11.576;2023-03-21T13:07:28;100768.91;;;15.75;84.43
18500;BME280;9379;52.134;11.576;2023-03-21T13:09:57;100754.34;;;16.02;83.08